Time;durP1;ratioP1;P1;durP2;ratioP2;P2;SDS_P1;SDS_P2;PMS_P1;PMS_P2;Temp;Humidity;BMP_temperature;BMP_pressure;BME280_temperature;BME280_humidity;BME280_pressure;Samples;Min_cycle;Max_cycle;Signal;HPM_P1;HPM_P2
2022/04/28 00:00:25;;;;;;;6.47;2.22;;;;;;;;;;4972413;28;20518;-65
2022/04/28 00:02:57;;;;;;;7.63;2.58;;;;;;;;;;4984150;28;20410;-65
2022/04/28 00:05:29;;;;;;;6.68;2.35;;;;;;;;;;4987360;28;20421;-65
2022/04/28 00:08:00;;;;;;;9.02;2.42;;;;;;;;;;4995316;28;20050;-65
2022/04/28 00:10:32;;;;;;;8.15;2.83;;;;;;;;;;5031679;28;20191;-65
2022/04/28 00:13:04;;;;;;;8.55;2.58;;;;;;;;;;5031231;28;20060;-65
2022/04/28 00:15:36;;;;;;;10.02;2.38;;;;;;;;;;5031808;28;20069;-65
2022/04/28 00:18:08;;;;;;;5.43;2.50;;;;;;;;;;5031152;28;20053;-65
2022/04/28 00:20:39;;;;;;;7.80;2.15;;;;;;;;;;5011416;28;20058;-66
2022/04/28 00:23:10;;;;;;;8.30;2.40;;;;;;;;;;4972094;28;20061;-65
2022/04/28 00:25:41;;;;;;;7.88;2.58;;;;;;;;;;4980476;28;20442;-65
2022/04/28 00:28:13;;;;;;;6.07;2.55;;;;;;;;;;5011198;28;20046;-65
2022/04/28 00:30:45;;;;;;;10.00;2.35;;;;;;;;;;4940818;28;20055;-65
2022/04/28 00:33:17;;;;;;;6.40;2.58;;;;;;;;;;4972317;28;20474;-65
2022/04/28 00:35:49;;;;;;;10.45;2.78;;;;;;;;;;4956421;28;20658;-66
2022/04/28 00:38:20;;;;;;;11.65;2.65;;;;;;;;;;4984099;28;20082;-65
2022/04/28 00:40:51;;;;;;;9.52;2.40;;;;;;;;;;4991423;28;20505;-65
2022/04/28 00:43:28;;;;;;;7.78;2.80;;;;;;;;;;4959823;28;20065;-65
2022/04/28 00:46:00;;;;;;;6.95;2.58;;;;;;;;;;4991547;28;20054;-65
2022/04/28 00:51:20;;;;;;;7.80;2.70;;;;;;;;;;4971923;28;20526;-65
2022/04/28 00:53:52;;;;;;;12.95;2.42;;;;;;;;;;4933279;29;20063;-66
2022/04/28 00:56:25;;;;;;;6.45;2.78;;;;;;;;;;4902349;29;20095;-65
2022/04/28 00:58:59;;;;;;;7.20;2.58;;;;;;;;;;4933302;29;20056;-65
2022/04/28 01:01:31;;;;;;;6.35;2.20;;;;;;;;;;4896806;29;20060;-66
2022/04/28 01:04:03;;;;;;;7.88;2.80;;;;;;;;;;4913822;29;20074;-66
2022/04/28 01:06:35;;;;;;;5.63;2.35;;;;;;;;;;4913611;29;20116;-66
2022/04/28 01:09:06;;;;;;;5.88;2.20;;;;;;;;;;4914013;29;20056;-66
2022/04/28 01:11:38;;;;;;;5.50;2.63;;;;;;;;;;4929634;29;20060;-65
2022/04/28 01:14:29;;;;;;;6.43;2.50;;;;;;;;;;4932732;29;20078;-65
2022/04/28 01:17:04;;;;;;;6.40;2.85;;;;;;;;;;4932977;29;20051;-65
2022/04/28 01:19:37;;;;;;;6.40;2.42;;;;;;;;;;4932485;29;20067;-65
2022/04/28 01:22:09;;;;;;;7.45;3.05;;;;;;;;;;4950830;29;20054;-66
2022/04/28 01:24:40;;;;;;;7.07;2.58;;;;;;;;;;4951940;29;20055;-65
2022/04/28 01:27:13;;;;;;;5.22;2.42;;;;;;;;;;4932430;29;20052;-65
2022/04/28 01:29:44;;;;;;;7.10;2.53;;;;;;;;;;4948060;29;20058;-66
2022/04/28 01:32:15;;;;;;;6.28;2.72;;;;;;;;;;4951252;29;20051;-65
2022/04/28 01:34:46;;;;;;;7.80;2.47;;;;;;;;;;4913831;29;20056;-66
2022/04/28 01:37:17;;;;;;;7.03;3.20;;;;;;;;;;4928610;29;20067;-66
2022/04/28 01:39:49;;;;;;;5.80;2.92;;;;;;;;;;4936615;29;20052;-67
2022/04/28 01:42:19;;;;;;;4.63;2.10;;;;;;;;;;4917910;29;20056;-66
2022/04/28 01:44:52;;;;;;;9.80;3.10;;;;;;;;;;4931985;29;20542;-67
2022/04/28 01:47:24;;;;;;;12.00;2.65;;;;;;;;;;4900948;29;20059;-66
2022/04/28 01:50:13;;;;;;;5.15;2.35;;;;;;;;;;4905379;29;20059;-66
2022/04/28 01:56:19;;;;;;;7.90;2.60;;;;;;;;;;4913701;29;20052;-66
2022/04/28 01:59:13;;;;;;;5.30;2.40;;;;;;;;;;4888089;29;20412;-65
2022/04/28 02:01:59;;;;;;;6.75;2.90;;;;;;;;;;4894008;29;20053;-66
2022/04/28 02:04:29;;;;;;;9.40;2.78;;;;;;;;;;4872227;29;20060;-66
2022/04/28 02:07:01;;;;;;;7.63;2.92;;;;;;;;;;4882264;29;20170;-66
2022/04/28 02:09:32;;;;;;;6.35;2.22;;;;;;;;;;4932174;29;20048;-66
2022/04/28 02:12:04;;;;;;;4.65;2.22;;;;;;;;;;4906234;29;20489;-66
2022/04/28 02:14:55;;;;;;;8.32;2.25;;;;;;;;;;4912985;29;20056;-65
2022/04/28 02:17:35;;;;;;;7.35;2.38;;;;;;;;;;4923080;29;20048;-65
2022/04/28 02:20:11;;;;;;;7.00;2.22;;;;;;;;;;4896072;29;20057;-66
2022/04/28 02:22:44;;;;;;;5.25;2.53;;;;;;;;;;4916762;29;20055;-65
2022/04/28 02:25:15;;;;;;;8.05;2.28;;;;;;;;;;4948222;29;20059;-65
2022/04/28 02:27:46;;;;;;;5.03;2.42;;;;;;;;;;4870566;29;20052;-65
2022/04/28 02:30:20;;;;;;;5.43;2.33;;;;;;;;;;4917098;29;20060;-66
2022/04/28 02:33:10;;;;;;;6.55;2.30;;;;;;;;;;4935910;28;20503;-66
2022/04/28 02:36:13;;;;;;;7.80;2.22;;;;;;;;;;4955590;28;20066;-65
2022/04/28 02:38:43;;;;;;;6.57;2.47;;;;;;;;;;4954632;28;20567;-66
2022/04/28 02:41:19;;;;;;;5.95;2.60;;;;;;;;;;4941359;29;20078;-66
2022/04/28 02:43:53;;;;;;;8.13;2.22;;;;;;;;;;4954797;28;20114;-66
2022/04/28 02:46:24;;;;;;;;;;;;;;;;;;4920199;29;20194;-67
2022/04/28 02:49:05;;;;;;;7.55;2.20;;;;;;;;;;4959048;28;19929;-67
2022/04/28 02:51:38;;;;;;;7.07;2.30;;;;;;;;;;4920228;29;20062;-66
2022/04/28 02:54:10;;;;;;;5.40;2.42;;;;;;;;;;4916261;29;20052;-67
2022/04/28 02:56:50;;;;;;;5.38;2.85;;;;;;;;;;4918899;29;20052;-66
2022/04/28 02:59:21;;;;;;;7.72;2.50;;;;;;;;;;4954238;28;20054;-66
2022/04/28 03:01:53;;;;;;;6.20;2.50;;;;;;;;;;4954534;28;20051;-67
2022/04/28 03:04:25;;;;;;;11.07;2.50;;;;;;;;;;4922830;29;20058;-66
2022/04/28 03:12:36;;;;;;;9.85;3.00;;;;;;;;;;4949259;29;20395;-67
2022/04/28 03:15:27;;;;;;;6.82;2.70;;;;;;;;;;4949637;29;20059;-67
2022/04/28 03:17:58;;;;;;;5.75;2.42;;;;;;;;;;4893664;29;21131;-67
2022/04/28 03:20:29;;;;;;;7.85;2.65;;;;;;;;;;4851854;29;20057;-67
2022/04/28 03:23:03;;;;;;;6.70;2.45;;;;;;;;;;4879502;29;20056;-66
2022/04/28 03:25:34;;;;;;;6.32;2.30;;;;;;;;;;4897048;29;20056;-67
2022/04/28 03:28:08;;;;;;;7.93;2.42;;;;;;;;;;4915669;29;20048;-67
2022/04/28 03:30:38;;;;;;;6.82;2.25;;;;;;;;;;4953612;28;20451;-67
2022/04/28 03:33:14;;;;;;;7.45;2.38;;;;;;;;;;4973044;28;20059;-66
2022/04/28 03:35:46;;;;;;;4.88;2.33;;;;;;;;;;4972915;28;20050;-68
2022/04/28 03:38:16;;;;;;;6.57;2.55;;;;;;;;;;4953911;29;20419;-67
2022/04/28 03:40:47;;;;;;;5.65;2.42;;;;;;;;;;4973023;28;20054;-67
2022/04/28 03:43:18;;;;;;;6.45;2.30;;;;;;;;;;4934353;29;20539;-67
2022/04/28 03:45:51;;;;;;;5.97;2.40;;;;;;;;;;4896311;29;20496;-67
2022/04/28 03:48:22;;;;;;;3.92;2.03;;;;;;;;;;4877662;29;20072;-68
2022/04/28 03:50:53;;;;;;;4.60;1.73;;;;;;;;;;4878133;29;20061;-67
2022/04/28 03:53:24;;;;;;;6.53;2.70;;;;;;;;;;4869191;29;20168;-67
2022/04/28 03:55:55;;;;;;;4.88;1.70;;;;;;;;;;4878036;29;20061;-67
2022/04/28 03:58:26;;;;;;;5.88;2.42;;;;;;;;;;4840429;29;20529;-67
2022/04/28 04:00:57;;;;;;;4.45;2.47;;;;;;;;;;4855443;29;20053;-67
2022/04/28 04:03:44;;;;;;;5.50;2.38;;;;;;;;;;4853391;29;20407;-67
2022/04/28 04:06:15;;;;;;;7.78;2.30;;;;;;;;;;4874406;29;20058;-68
2022/04/28 04:08:47;;;;;;;8.02;2.33;;;;;;;;;;4877177;29;20057;-67
2022/04/28 04:11:17;;;;;;;7.03;2.38;;;;;;;;;;4865310;29;20521;-68
2022/04/28 04:13:48;;;;;;;4.00;1.70;;;;;;;;;;4896018;29;20123;-68
2022/04/28 04:16:19;;;;;;;3.83;1.92;;;;;;;;;;4899018;29;20052;-68
2022/04/28 04:19:17;;;;;;;7.35;2.40;;;;;;;;;;4862420;29;20065;-68
2022/04/28 04:21:54;;;;;;;6.78;2.03;;;;;;;;;;4833027;29;20062;-69
2022/04/28 04:24:26;;;;;;;5.20;2.20;;;;;;;;;;4803759;29;20050;-67
2022/04/28 04:26:58;;;;;;;4.97;1.95;;;;;;;;;;4858133;29;20054;-68
2022/04/28 04:29:57;;;;;;;3.75;2.03;;;;;;;;;;4840596;29;20095;-67
2022/04/28 04:32:45;;;;;;;8.10;2.53;;;;;;;;;;4854076;29;20057;-68
2022/04/28 04:35:25;;;;;;;7.75;1.92;;;;;;;;;;4850438;29;20061;-67
2022/04/28 04:37:56;;;;;;;3.80;2.08;;;;;;;;;;4858436;29;20168;-68
2022/04/28 04:40:29;;;;;;;5.05;2.13;;;;;;;;;;4860033;29;20406;-67
2022/04/28 04:43:03;;;;;;;5.97;2.13;;;;;;;;;;4861036;29;20057;-67
2022/04/28 04:45:33;;;;;;;;;;;;;;;;;;4893052;29;20057;-68
2022/04/28 04:48:24;;;;;;;5.07;2.35;;;;;;;;;;4877096;29;19935;-67
2022/04/28 04:50:58;;;;;;;5.95;2.08;;;;;;;;;;4878444;29;20054;-68
2022/04/28 04:53:35;;;;;;;4.22;2.10;;;;;;;;;;4863857;29;20492;-68
2022/04/28 04:56:06;;;;;;;7.10;2.30;;;;;;;;;;4854841;29;20553;-67
2022/04/28 04:58:37;;;;;;;4.93;2.13;;;;;;;;;;4854718;29;20070;-68
2022/04/28 05:01:09;;;;;;;4.25;2.33;;;;;;;;;;4839600;29;20053;-68
2022/04/28 05:03:41;;;;;;;6.22;2.22;;;;;;;;;;4843696;29;20402;-68
2022/04/28 05:06:12;;;;;;;7.82;2.30;;;;;;;;;;4897049;29;20063;-67
2022/04/28 05:08:53;;;;;;;5.57;2.05;;;;;;;;;;4932799;29;20056;-68
2022/04/28 05:11:24;;;;;;;7.40;2.05;;;;;;;;;;4933080;29;20544;-67
2022/04/28 05:14:07;;;;;;;4.70;2.35;;;;;;;;;;4932955;29;20160;-67
2022/04/28 05:16:38;;;;;;;7.20;2.63;;;;;;;;;;4932861;29;20059;-67
2022/04/28 05:19:32;;;;;;;5.28;2.20;;;;;;;;;;4913686;29;20048;-68
2022/04/28 05:22:07;;;;;;;9.10;2.55;;;;;;;;;;4913592;29;20533;-67
2022/04/28 05:25:04;;;;;;;7.07;1.90;;;;;;;;;;4914135;29;20051;-67
2022/04/28 05:27:53;;;;;;;7.20;2.10;;;;;;;;;;4887475;29;20060;-67
2022/04/28 05:30:42;;;;;;;6.13;2.03;;;;;;;;;;4903923;29;20045;-67
2022/04/28 05:33:33;;;;;;;5.70;1.98;;;;;;;;;;4913555;29;20056;-67
2022/04/28 05:36:28;;;;;;;4.68;2.22;;;;;;;;;;4933257;29;20047;-67
2022/04/28 05:39:12;;;;;;;9.70;2.20;;;;;;;;;;4932049;29;20381;-67
2022/04/28 05:41:56;;;;;;;4.32;2.08;;;;;;;;;;4875887;29;20061;-68
2022/04/28 05:47:41;;;;;;;4.72;2.13;;;;;;;;;;4875966;29;20061;-68
2022/04/28 05:50:26;;;;;;;6.85;1.88;;;;;;;;;;4875711;29;20057;-67
2022/04/28 05:53:10;;;;;;;11.55;3.15;;;;;;;;;;4874568;29;20057;-67
2022/04/28 05:56:02;;;;;;;7.32;2.40;;;;;;;;;;4875630;29;20628;-67
2022/04/28 05:59:03;;;;;;;6.60;2.20;;;;;;;;;;4894287;29;20055;-67
2022/04/28 06:01:47;;;;;;;5.38;2.20;;;;;;;;;;4900646;29;20056;-67
2022/04/28 06:04:29;;;;;;;7.57;2.03;;;;;;;;;;4861813;29;20450;-68
2022/04/28 06:07:01;;;;;;;4.47;2.20;;;;;;;;;;4844671;29;20056;-67
2022/04/28 06:09:35;;;;;;;6.50;2.33;;;;;;;;;;4845069;29;20064;-67
2022/04/28 06:12:07;;;;;;;7.13;2.45;;;;;;;;;;4838428;29;20499;-67
2022/04/28 06:15:07;;;;;;;9.63;2.30;;;;;;;;;;4838802;29;20454;-67
2022/04/28 06:18:04;;;;;;;6.07;2.33;;;;;;;;;;4839049;29;20072;-67
2022/04/28 06:20:34;;;;;;;6.53;2.40;;;;;;;;;;4787786;29;20063;-67
2022/04/28 06:23:09;;;;;;;5.13;2.30;;;;;;;;;;4837439;29;20080;-67
2022/04/28 06:25:45;;;;;;;5.72;2.33;;;;;;;;;;4856975;29;20049;-67
2022/04/28 06:28:17;;;;;;;6.72;2.67;;;;;;;;;;4875193;29;20073;-68
2022/04/28 06:30:55;;;;;;;5.28;2.13;;;;;;;;;;4875722;29;20421;-67
2022/04/28 06:33:41;;;;;;;6.35;2.50;;;;;;;;;;4875552;29;20060;-67
2022/04/28 06:36:34;;;;;;;9.05;2.30;;;;;;;;;;4842825;29;20053;-69
2022/04/28 06:39:05;;;;;;;5.60;2.53;;;;;;;;;;4838618;29;20415;-67
2022/04/28 06:41:36;;;;;;;9.43;2.70;;;;;;;;;;4856571;29;20410;-66
2022/04/28 06:44:19;;;;;;;3.97;2.33;;;;;;;;;;4856536;29;20053;-66
2022/04/28 06:47:07;;;;;;;5.28;2.03;;;;;;;;;;4858078;29;20060;-66
2022/04/28 06:50:16;;;;;;;5.80;2.15;;;;;;;;;;4923962;29;20085;-67
2022/04/28 06:53:05;;;;;;;6.97;2.50;;;;;;;;;;4913163;29;20064;-67
2022/04/28 06:55:37;;;;;;;;;;;;;;;;;;4885880;29;20544;-67
2022/04/28 06:58:08;;;;;;;4.72;2.00;;;;;;;;;;4890835;29;19923;-67
2022/04/28 07:00:43;;;;;;;5.65;2.25;;;;;;;;;;4897612;29;20558;-67
2022/04/28 07:03:14;;;;;;;7.50;2.72;;;;;;;;;;4920958;29;20055;-67
2022/04/28 07:05:48;;;;;;;9.27;2.25;;;;;;;;;;4934319;29;20063;-67
2022/04/28 07:08:18;;;;;;;4.75;2.38;;;;;;;;;;4907022;29;20079;-67
2022/04/28 07:10:50;;;;;;;7.50;2.50;;;;;;;;;;4904939;29;20056;-67
2022/04/28 07:13:21;;;;;;;7.72;2.47;;;;;;;;;;4893337;29;20068;-67
2022/04/28 07:16:12;;;;;;;8.55;2.72;;;;;;;;;;4916140;29;20056;-67
2022/04/28 07:19:06;;;;;;;6.03;2.42;;;;;;;;;;4908265;29;20097;-67
2022/04/28 07:21:38;;;;;;;6.07;2.33;;;;;;;;;;4903133;29;20165;-67
2022/04/28 07:24:09;;;;;;;5.00;2.40;;;;;;;;;;4897316;29;20052;-67
2022/04/28 07:26:40;;;;;;;7.50;2.72;;;;;;;;;;4866112;29;20052;-66
2022/04/28 07:29:10;;;;;;;5.28;2.30;;;;;;;;;;4897143;29;20067;-67
2022/04/28 07:31:49;;;;;;;7.07;2.30;;;;;;;;;;4897413;29;20048;-67
2022/04/28 07:34:52;;;;;;;5.32;2.53;;;;;;;;;;4897150;29;20052;-67
2022/04/28 07:37:41;;;;;;;5.53;2.55;;;;;;;;;;4889244;29;20529;-67
2022/04/28 07:40:41;;;;;;;6.60;2.63;;;;;;;;;;4912976;29;20053;-67
2022/04/28 07:43:17;;;;;;;7.72;2.38;;;;;;;;;;4934449;29;20047;-67
2022/04/28 07:45:54;;;;;;;5.97;2.47;;;;;;;;;;4877582;29;20524;-68
2022/04/28 07:48:26;;;;;;;5.93;2.83;;;;;;;;;;4850713;29;20050;-66
2022/04/28 07:50:57;;;;;;;6.28;2.60;;;;;;;;;;4840859;29;20064;-67
2022/04/28 07:53:33;;;;;;;8.23;2.53;;;;;;;;;;4848998;29;20062;-67
2022/04/28 07:56:10;;;;;;;6.70;2.25;;;;;;;;;;4850923;29;20057;-67
2022/04/28 07:58:42;;;;;;;3.97;2.17;;;;;;;;;;4896358;29;20394;-67
2022/04/28 08:01:59;;;;;;;5.78;2.10;;;;;;;;;;4895711;29;20091;-66
2022/04/28 08:04:35;;;;;;;6.75;2.58;;;;;;;;;;4877657;29;20556;-66
2022/04/28 08:07:07;;;;;;;6.70;2.80;;;;;;;;;;4877638;29;20068;-67
2022/04/28 08:09:41;;;;;;;7.55;2.42;;;;;;;;;;4896193;29;20065;-67
2022/04/28 08:12:17;;;;;;;4.90;2.42;;;;;;;;;;4858611;29;20060;-67
2022/04/28 08:15:27;;;;;;;5.55;1.92;;;;;;;;;;4896050;29;20057;-66
2022/04/28 08:17:59;;;;;;;5.80;2.33;;;;;;;;;;4896020;29;20057;-67
2022/04/28 08:20:31;;;;;;;4.32;2.13;;;;;;;;;;4896112;29;20063;-66
2022/04/28 08:23:02;;;;;;;7.70;2.25;;;;;;;;;;4911194;29;20079;-67
2022/04/28 08:25:32;;;;;;;10.13;2.47;;;;;;;;;;4885315;29;20056;-66
2022/04/28 08:28:03;;;;;;;6.68;2.70;;;;;;;;;;4858628;29;20061;-66
2022/04/28 08:30:35;;;;;;;9.95;2.20;;;;;;;;;;4858548;29;20058;-67
2022/04/28 08:33:06;;;;;;;4.47;2.22;;;;;;;;;;4858515;29;20429;-67
2022/04/28 08:35:36;;;;;;;6.05;2.40;;;;;;;;;;4897032;29;20604;-67
2022/04/28 08:38:07;;;;;;;6.72;2.38;;;;;;;;;;4933558;29;20051;-67
2022/04/28 08:40:40;;;;;;;5.68;2.28;;;;;;;;;;4952411;29;20059;-67
2022/04/28 08:43:17;;;;;;;5.05;2.38;;;;;;;;;;4952606;29;20531;-67
2022/04/28 08:48:57;;;;;;;7.45;2.28;;;;;;;;;;4912868;29;20587;-67
2022/04/28 08:51:29;;;;;;;3.85;2.20;;;;;;;;;;4895130;29;20056;-67
2022/04/28 08:54:04;;;;;;;5.30;2.20;;;;;;;;;;4914147;29;20052;-67
2022/04/28 08:56:35;;;;;;;4.30;1.75;;;;;;;;;;4914207;29;20523;-67
2022/04/28 08:59:07;;;;;;;5.93;2.20;;;;;;;;;;4914428;29;20060;-67
2022/04/28 09:01:39;;;;;;;3.92;2.05;;;;;;;;;;4880526;29;20057;-67
2022/04/28 09:04:35;;;;;;;4.53;2.35;;;;;;;;;;4804015;29;20054;-67
2022/04/28 09:07:39;;;;;;;4.25;1.88;;;;;;;;;;4839551;29;20061;-66
2022/04/28 09:10:33;;;;;;;3.78;1.95;;;;;;;;;;4839756;29;20058;-67
2022/04/28 09:16:24;;;;;;;4.85;2.22;;;;;;;;;;4839343;29;20046;-67
2022/04/28 09:18:59;;;;;;;4.63;2.65;;;;;;;;;;4811144;29;20695;-68
2022/04/28 09:21:36;;;;;;;5.90;2.40;;;;;;;;;;4788966;29;20053;-67
2022/04/28 09:24:09;;;;;;;5.93;2.13;;;;;;;;;;4837293;29;20058;-68
2022/04/28 09:26:41;;;;;;;6.80;2.25;;;;;;;;;;4857344;29;20053;-67
2022/04/28 09:29:16;;;;;;;5.28;2.38;;;;;;;;;;4875833;29;20057;-67
2022/04/28 09:31:50;;;;;;;4.60;2.05;;;;;;;;;;4866241;29;20052;-68
2022/04/28 09:35:10;;;;;;;6.38;1.90;;;;;;;;;;4844466;29;20050;-67
2022/04/28 09:38:02;;;;;;;5.32;2.28;;;;;;;;;;4820771;29;20191;-67
2022/04/28 09:43:38;;;;;;;4.03;2.22;;;;;;;;;;4816563;29;20055;-67
2022/04/28 09:46:11;;;;;;;4.90;2.05;;;;;;;;;;4802236;29;20218;-68
2022/04/28 09:48:43;;;;;;;9.82;2.55;;;;;;;;;;4802720;29;20528;-67
2022/04/28 09:51:30;;;;;;;4.95;1.92;;;;;;;;;;4788076;29;20527;-67
2022/04/28 09:54:15;;;;;;;3.80;1.83;;;;;;;;;;4764114;30;20456;-67
2022/04/28 09:56:53;;;;;;;5.57;2.20;;;;;;;;;;4755079;30;20507;-68
2022/04/28 09:59:28;;;;;;;5.72;2.28;;;;;;;;;;4759679;30;20055;-67
2022/04/28 10:02:01;;;;;;;5.63;2.00;;;;;;;;;;4825948;29;20063;-67
2022/04/28 10:04:34;;;;;;;4.90;2.13;;;;;;;;;;4805366;29;20067;-67
2022/04/28 10:07:06;;;;;;;4.97;2.13;;;;;;;;;;4831087;29;20084;-67
2022/04/28 10:09:41;;;;;;;6.55;2.33;;;;;;;;;;4833034;29;20170;-67
2022/04/28 10:12:25;;;;;;;4.63;2.22;;;;;;;;;;4884099;29;20068;-67
2022/04/28 10:15:20;;;;;;;5.38;1.92;;;;;;;;;;4885218;29;20053;-67
2022/04/28 10:18:08;;;;;;;4.70;2.25;;;;;;;;;;4875580;29;20588;-67
2022/04/28 10:20:45;;;;;;;6.25;2.78;;;;;;;;;;4875395;29;20064;-67
2022/04/28 10:32:57;;;;;;;4.75;2.35;;;;;;;;;;4894209;29;20390;-67
2022/04/28 10:35:44;;;;;;;6.72;2.88;;;;;;;;;;4856537;29;20049;-68
2022/04/28 10:38:18;;;;;;;7.93;2.42;;;;;;;;;;4857556;29;20062;-67
2022/04/28 10:41:07;;;;;;;6.88;2.28;;;;;;;;;;4860903;29;20414;-67
2022/04/28 10:43:39;;;;;;;5.50;2.17;;;;;;;;;;4860836;29;20064;-67
2022/04/28 10:46:10;;;;;;;5.95;2.35;;;;;;;;;;4860935;29;20061;-68
2022/04/28 10:48:42;;;;;;;8.18;2.65;;;;;;;;;;4848036;29;20521;-68
2022/04/28 10:51:15;;;;;;;7.25;3.65;;;;;;;;;;4898016;29;20072;-67
2022/04/28 10:54:03;;;;;;;9.02;3.83;;;;;;;;;;4860286;29;20081;-68
2022/04/28 10:56:43;;;;;;;10.02;4.40;;;;;;;;;;4860592;29;20053;-68
2022/04/28 10:59:40;;;;;;;9.18;4.10;;;;;;;;;;4860331;29;20128;-68
2022/04/28 11:02:14;;;;;;;10.27;4.85;;;;;;;;;;4860210;29;20525;-68
2022/04/28 11:05:03;;;;;;;;;;;;;;;;;;4861000;29;20058;-67
2022/04/28 11:07:35;;;;;;;10.45;3.88;;;;;;;;;;4860369;29;20447;-67
2022/04/28 11:10:07;;;;;;;8.15;4.22;;;;;;;;;;4860586;29;20160;-67
2022/04/28 11:12:41;;;;;;;8.95;3.97;;;;;;;;;;4927294;28;20498;-68
2022/04/28 11:15:14;;;;;;;8.82;3.72;;;;;;;;;;4993317;28;20038;-67
2022/04/28 11:17:45;;;;;;;9.35;4.15;;;;;;;;;;4973296;28;20402;-67
2022/04/28 11:20:21;;;;;;;9.60;3.40;;;;;;;;;;4973748;28;20478;-67
2022/04/28 11:23:09;;;;;;;6.72;3.22;;;;;;;;;;4954383;28;20055;-67
2022/04/28 11:25:43;;;;;;;8.05;3.03;;;;;;;;;;4954294;28;20055;-67
2022/04/28 11:28:14;;;;;;;8.60;3.45;;;;;;;;;;4992664;28;20054;-67
2022/04/28 11:30:46;;;;;;;9.50;3.50;;;;;;;;;;4986211;28;20093;-67
2022/04/28 11:33:20;;;;;;;8.75;2.95;;;;;;;;;;5031934;28;20045;-67
2022/04/28 11:35:51;;;;;;;6.22;2.65;;;;;;;;;;4992634;28;20046;-67
2022/04/28 11:38:32;;;;;;;5.57;2.80;;;;;;;;;;4992732;28;20571;-67
2022/04/28 11:41:04;;;;;;;13.60;2.40;;;;;;;;;;4992915;28;20054;-66
2022/04/28 11:43:36;;;;;;;7.25;2.70;;;;;;;;;;4992659;28;20062;-67
2022/04/28 11:46:07;;;;;;;9.75;2.88;;;;;;;;;;4972882;28;20058;-67
2022/04/28 11:48:38;;;;;;;4.97;2.10;;;;;;;;;;4949892;28;20453;-67
2022/04/28 11:51:09;;;;;;;8.50;2.08;;;;;;;;;;4933949;28;20064;-67
2022/04/28 11:53:44;;;;;;;4.43;1.55;;;;;;;;;;4938890;29;20055;-68
2022/04/28 11:56:19;;;;;;;2.58;1.30;;;;;;;;;;4912151;29;20063;-68
2022/04/28 11:58:51;;;;;;;4.80;1.38;;;;;;;;;;4953391;28;20822;-67
2022/04/28 12:01:23;;;;;;;4.10;1.45;;;;;;;;;;4914779;28;20058;-68
2022/04/28 12:03:55;;;;;;;4.88;1.20;;;;;;;;;;4940538;28;20058;-67
2022/04/28 12:06:27;;;;;;;3.47;1.17;;;;;;;;;;4944965;28;20063;-67
2022/04/28 12:08:59;;;;;;;3.58;1.20;;;;;;;;;;4955452;28;20051;-67
2022/04/28 12:14:22;;;;;;;2.90;1.10;;;;;;;;;;4969558;28;20061;-67
2022/04/28 12:19:59;;;;;;;2.83;1.30;;;;;;;;;;4972471;28;20059;-67
2022/04/28 12:22:37;;;;;;;2.58;1.20;;;;;;;;;;4972692;28;20051;-66
2022/04/28 12:25:10;;;;;;;1.90;1.10;;;;;;;;;;5011335;28;20647;-67
2022/04/28 12:27:51;;;;;;;3.97;1.35;;;;;;;;;;4991755;28;20503;-66
2022/04/28 12:30:22;;;;;;;3.65;1.30;;;;;;;;;;4991880;28;20053;-66
2022/04/28 12:32:55;;;;;;;3.22;1.40;;;;;;;;;;4971998;28;20061;-64
2022/04/28 12:35:32;;;;;;;4.07;1.10;;;;;;;;;;4973687;28;20062;-63
2022/04/28 12:38:10;;;;;;;4.18;1.17;;;;;;;;;;4991826;28;20054;-63
2022/04/28 12:40:42;;;;;;;3.63;1.45;;;;;;;;;;4959403;28;20051;-64
2022/04/28 12:43:13;;;;;;;5.78;1.42;;;;;;;;;;4991601;28;20050;-66
2022/04/28 12:45:51;;;;;;;5.15;1.25;;;;;;;;;;4955566;28;20069;-65
2022/04/28 12:48:27;;;;;;;2.65;1.00;;;;;;;;;;4971931;28;20170;-65
2022/04/28 12:51:12;;;;;;;3.40;1.10;;;;;;;;;;4972053;28;20051;-63
2022/04/28 12:53:49;;;;;;;2.42;1.05;;;;;;;;;;4971811;28;20046;-63
2022/04/28 12:56:30;;;;;;;2.33;0.95;;;;;;;;;;4991213;28;20061;-65
2022/04/28 12:59:04;;;;;;;4.35;1.27;;;;;;;;;;4991116;28;20065;-64
2022/04/28 13:01:36;;;;;;;4.32;1.13;;;;;;;;;;5001863;28;20057;-64
2022/04/28 13:04:28;;;;;;;4.47;0.90;;;;;;;;;;4994234;28;20772;-65
2022/04/28 13:06:58;;;;;;;;;;;;;;;;;;4978207;28;20053;-66
2022/04/28 13:09:35;;;;;;;2.85;0.82;;;;;;;;;;5010707;28;19948;-65
2022/04/28 13:12:06;;;;;;;2.47;1.05;;;;;;;;;;5010761;28;20080;-65
2022/04/28 13:14:37;;;;;;;6.55;0.85;;;;;;;;;;4978121;28;20506;-64
2022/04/28 13:17:07;;;;;;;2.92;0.90;;;;;;;;;;4994045;28;20061;-64
2022/04/28 13:19:38;;;;;;;3.70;0.98;;;;;;;;;;5010553;28;20505;-64
2022/04/28 13:22:09;;;;;;;1.88;0.90;;;;;;;;;;5010490;28;20053;-65
2022/04/28 13:24:40;;;;;;;2.90;1.00;;;;;;;;;;4990664;28;20054;-66
2022/04/28 13:27:11;;;;;;;5.00;1.13;;;;;;;;;;5029810;28;20049;-65
2022/04/28 13:29:41;;;;;;;2.75;0.95;;;;;;;;;;5030214;28;20224;-66
2022/04/28 13:32:12;;;;;;;3.30;1.05;;;;;;;;;;5029986;28;20159;-66
2022/04/28 13:34:43;;;;;;;6.50;1.00;;;;;;;;;;5013900;28;20537;-64
2022/04/28 13:37:13;;;;;;;3.65;1.00;;;;;;;;;;4977430;28;20053;-66
2022/04/28 13:39:44;;;;;;;1.75;0.80;;;;;;;;;;5014141;28;20158;-64
2022/04/28 13:42:15;;;;;;;3.35;1.33;;;;;;;;;;4997786;28;20445;-66
2022/04/28 13:44:46;;;;;;;3.67;1.10;;;;;;;;;;5064049;28;20572;-64
2022/04/28 13:47:17;;;;;;;1.50;0.80;;;;;;;;;;5049506;28;20409;-65
2022/04/28 13:49:48;;;;;;;2.60;0.93;;;;;;;;;;4984493;28;20045;-65
2022/04/28 13:52:19;;;;;;;3.65;0.93;;;;;;;;;;5049550;28;20057;-66
2022/04/28 13:54:49;;;;;;;3.00;0.93;;;;;;;;;;5049474;28;20032;-65
2022/04/28 13:57:20;;;;;;;1.83;0.82;;;;;;;;;;5049533;28;20060;-66
2022/04/28 13:59:51;;;;;;;1.83;1.02;;;;;;;;;;4984548;28;20053;-65
2022/04/28 14:02:21;;;;;;;2.53;1.10;;;;;;;;;;5009390;28;20506;-66
2022/04/28 14:04:52;;;;;;;2.75;0.90;;;;;;;;;;4946857;28;20164;-66
2022/04/28 14:07:22;;;;;;;3.72;1.52;;;;;;;;;;4930094;29;20064;-66
2022/04/28 14:09:53;;;;;;;3.22;1.00;;;;;;;;;;4970600;28;20519;-65
2022/04/28 14:12:24;;;;;;;2.45;0.77;;;;;;;;;;4986838;28;20055;-65
2022/04/28 14:14:55;;;;;;;1.83;1.13;;;;;;;;;;4969633;28;20065;-65
2022/04/28 14:17:32;;;;;;;2.85;0.73;;;;;;;;;;4975274;28;20047;-65
2022/04/28 14:20:05;;;;;;;3.25;1.38;;;;;;;;;;4961043;28;20059;-64
2022/04/28 14:22:39;;;;;;;1.80;0.73;;;;;;;;;;4962737;28;20051;-66
2022/04/28 14:25:10;;;;;;;1.42;0.60;;;;;;;;;;4949993;28;20059;-66
2022/04/28 14:27:40;;;;;;;1.50;0.80;;;;;;;;;;4958097;28;20050;-63
2022/04/28 14:30:11;;;;;;;3.75;0.90;;;;;;;;;;4990060;28;20058;-66
2022/04/28 14:32:42;;;;;;;1.95;0.70;;;;;;;;;;4973862;28;20046;-64
2022/04/28 14:35:13;;;;;;;2.42;1.05;;;;;;;;;;4989905;28;20105;-63
2022/04/28 14:37:44;;;;;;;1.50;0.75;;;;;;;;;;4990028;28;20065;-64
2022/04/28 14:40:17;;;;;;;3.85;0.93;;;;;;;;;;4989871;28;20070;-66
2022/04/28 14:42:49;;;;;;;6.22;0.85;;;;;;;;;;4999323;28;20065;-65
2022/04/28 14:45:20;;;;;;;2.70;1.13;;;;;;;;;;4990021;28;20050;-63
2022/04/28 14:47:51;;;;;;;2.25;1.08;;;;;;;;;;5047607;28;20064;-63
2022/04/28 14:53:31;;;;;;;2.28;0.82;;;;;;;;;;5051324;28;19928;-64
2022/04/28 14:56:02;;;;;;;5.40;1.08;;;;;;;;;;5065698;28;20404;-67
2022/04/28 14:58:34;;;;;;;3.05;0.80;;;;;;;;;;5014249;28;20059;-67
2022/04/28 15:01:05;;;;;;;4.72;1.23;;;;;;;;;;5045040;28;20053;-66
2022/04/28 15:03:39;;;;;;;2.00;1.20;;;;;;;;;;5033108;28;20092;-67
2022/04/28 15:06:10;;;;;;;2.95;0.80;;;;;;;;;;5002772;28;20057;-65
2022/04/28 15:08:42;;;;;;;3.15;1.20;;;;;;;;;;5029133;28;20497;-67
2022/04/28 15:11:12;;;;;;;3.35;0.60;;;;;;;;;;5029294;28;20053;-65
2022/04/28 15:13:43;;;;;;;3.38;1.10;;;;;;;;;;5029007;28;20049;-69
2022/04/28 15:16:14;;;;;;;2.38;0.80;;;;;;;;;;5029175;28;20049;-67
2022/04/28 15:18:45;;;;;;;1.65;0.70;;;;;;;;;;5009081;28;20634;-68
2022/04/28 15:21:15;;;;;;;2.13;0.75;;;;;;;;;;5009351;28;20085;-68
2022/04/28 15:23:47;;;;;;;2.88;0.80;;;;;;;;;;5009212;28;20057;-68
2022/04/28 15:26:18;;;;;;;3.40;0.90;;;;;;;;;;5011518;28;20053;-67
2022/04/28 15:28:49;;;;;;;3.08;0.90;;;;;;;;;;5012471;28;20049;-67
2022/04/28 15:31:20;;;;;;;2.00;0.73;;;;;;;;;;5012858;28;20154;-67
2022/04/28 15:33:51;;;;;;;2.95;0.80;;;;;;;;;;5012664;28;20537;-67
2022/04/28 15:36:21;;;;;;;3.53;0.90;;;;;;;;;;5012619;28;20058;-67
2022/04/28 15:38:53;;;;;;;1.35;0.70;;;;;;;;;;5012375;28;20177;-67
2022/04/28 15:41:24;;;;;;;1.30;0.70;;;;;;;;;;4986804;28;20045;-67
2022/04/28 15:43:56;;;;;;;2.47;0.80;;;;;;;;;;5018697;28;20049;-67
2022/04/28 15:46:27;;;;;;;1.85;0.93;;;;;;;;;;5051897;28;20053;-67
2022/04/28 15:48:58;;;;;;;2.28;1.02;;;;;;;;;;5051677;28;20503;-68
2022/04/28 15:51:28;;;;;;;2.13;0.75;;;;;;;;;;4995703;28;20096;-69
2022/04/28 15:54:00;;;;;;;3.17;0.98;;;;;;;;;;4972961;28;20065;-64
2022/04/28 15:56:31;;;;;;;1.30;0.68;;;;;;;;;;4983789;28;20054;-66
2022/04/28 15:59:03;;;;;;;2.83;0.90;;;;;;;;;;4992286;28;20054;-67
2022/04/28 16:01:35;;;;;;;1.10;0.70;;;;;;;;;;4992218;28;20437;-65
2022/04/28 16:04:07;;;;;;;3.03;0.77;;;;;;;;;;4992568;28;20174;-67
2022/04/28 16:06:38;;;;;;;1.58;0.73;;;;;;;;;;4976715;28;20058;-66
2022/04/28 16:09:09;;;;;;;1.50;0.85;;;;;;;;;;4992151;28;20453;-68
2022/04/28 16:11:41;;;;;;;4.50;1.17;;;;;;;;;;4992476;28;20104;-66
2022/04/28 16:14:12;;;;;;;1.13;1.00;;;;;;;;;;4992072;28;20514;-67
2022/04/28 16:16:44;;;;;;;2.63;1.00;;;;;;;;;;4992064;28;20050;-65